Terminal Aerodrome Forecast
Issued by NWS

Current Version | Previous Version | Text Only | Print | Product List | Glossary On
Versions: 1 2 3 4 5 6 7 8 9 10 11 12 13 14 15 16 17 18 19 20 21 22 23 24 25 26 27 28 29
000
FTUS42 KMFL 302226 AAC
TAFTMB
TAF AMD
KTMB 302226Z 3022/0118 VRB15G25KT 3SM TSRA SCT018CB BKN025 OVC060
     FM302300 VRB06KT P6SM VCTS SCT030CB BKN050 BKN080
     FM010200 VRB03KT P6SM FEW025 BKN250
     FM011600 15008KT P6SM VCTS SCT030CB=

USA.gov is the U.S. government's official web portal to all federal, state and local government web resources and services.